Time;durP1;ratioP1;P1;durP2;ratioP2;P2;SDS_P1;SDS_P2;PMS_P1;PMS_P2;Temp;Humidity;BMP_temperature;BMP_pressure;BME280_temperature;BME280_humidity;BME280_pressure;Samples;Min_cycle;Max_cycle;Signal;HPM_P1;HPM_P2
2023/11/10 00:00:10;;;;;;;0.50;0.40;;;10.60;99.90;;;;;;5018307;28;20052;-80
2023/11/10 00:02:39;;;;;;;1.70;0.40;;;10.50;99.90;;;;;;5015444;28;20157;-82
2023/11/10 00:05:07;;;;;;;2.38;0.40;;;10.40;99.90;;;;;;5015343;28;20061;-82
2023/11/10 00:07:34;;;;;;;1.92;0.47;;;10.40;99.90;;;;;;5019922;28;20050;-81
2023/11/10 00:10:02;;;;;;;2.30;0.50;;;10.40;99.90;;;;;;5020268;28;20050;-82
2023/11/10 00:12:29;;;;;;;0.85;0.30;;;10.40;99.90;;;;;;5017521;28;20061;-81
2023/11/10 00:14:59;;;;;;;0.80;0.52;;;10.40;99.90;;;;;;5019201;28;20510;-82
2023/11/10 00:17:25;;;;;;;1.10;0.82;;;10.30;99.90;;;;;;5013823;28;20498;-83
2023/11/10 00:19:52;;;;;;;1.85;0.57;;;10.30;99.90;;;;;;5017363;28;20529;-79
2023/11/10 00:22:19;;;;;;;0.40;0.30;;;10.30;99.90;;;;;;5019033;28;20494;-80
2023/11/10 00:24:46;;;;;;;0.82;0.30;;;10.30;99.90;;;;;;5018190;28;20100;-82
2023/11/10 00:27:14;;;;;;;1.85;0.73;;;10.20;99.90;;;;;;5030312;28;20091;-82
2023/11/10 00:29:42;;;;;;;0.30;0.30;;;10.30;99.90;;;;;;5019226;28;20085;-82
2023/11/10 00:32:11;;;;;;;1.10;0.50;;;10.30;99.90;;;;;;5020200;28;20073;-81
2023/11/10 00:34:39;;;;;;;1.95;0.55;;;10.20;99.90;;;;;;5032965;28;20458;-82
2023/11/10 00:37:06;;;;;;;1.05;0.60;;;10.20;99.90;;;;;;5018026;28;20049;-83
2023/11/10 00:39:33;;;;;;;1.17;0.50;;;10.20;99.90;;;;;;5017869;28;20054;-81
2023/11/10 00:42:00;;;;;;;1.35;0.45;;;10.20;99.90;;;;;;5017919;28;20046;-82
2023/11/10 00:44:27;;;;;;;0.50;0.38;;;10.20;99.90;;;;;;5032590;28;20054;-83
2023/11/10 00:46:54;;;;;;;1.65;0.47;;;10.10;99.90;;;;;;5032650;28;20516;-82
2023/11/10 00:49:22;;;;;;;0.63;0.30;;;10.10;99.90;;;;;;5017143;28;20046;-82
2023/11/10 00:51:49;;;;;;;1.65;0.30;;;10.10;99.90;;;;;;5017663;28;20096;-80
2023/11/10 00:54:16;;;;;;;0.40;0.40;;;10.10;99.90;;;;;;5014981;28;20045;-82
2023/11/10 00:56:44;;;;;;;1.60;0.45;;;10.00;99.90;;;;;;5017222;28;20042;-83
2023/11/10 00:59:11;;;;;;;1.10;0.70;;;9.90;99.90;;;;;;5018020;28;20540;-81
2023/11/10 01:01:39;;;;;;;3.72;0.70;;;9.90;99.90;;;;;;5017994;28;20057;-82
2023/11/10 01:04:07;;;;;;;0.57;0.40;;;9.90;99.90;;;;;;5010538;28;20532;-83
2023/11/10 01:06:34;;;;;;;0.70;0.40;;;9.90;99.90;;;;;;5019396;28;20057;-83
2023/11/10 01:09:01;;;;;;;1.35;0.38;;;9.90;99.90;;;;;;5016843;28;20406;-82
2023/11/10 01:11:28;;;;;;;2.33;0.70;;;9.80;99.90;;;;;;5015105;28;20263;-83
2023/11/10 01:13:55;;;;;;;1.92;0.40;;;9.80;99.90;;;;;;5016403;28;20058;-82
2023/11/10 01:16:23;;;;;;;1.40;0.40;;;9.70;99.90;;;;;;5017084;28;20081;-83
2023/11/10 01:18:50;;;;;;;1.63;0.63;;;9.70;99.90;;;;;;5015951;28;20121;-82
2023/11/10 01:21:18;;;;;;;0.80;0.50;;;9.70;99.90;;;;;;5016775;28;20060;-82
2023/11/10 01:23:45;;;;;;;2.10;0.40;;;9.60;99.90;;;;;;5012369;28;20045;-83
2023/11/10 01:26:13;;;;;;;0.88;0.50;;;9.60;99.90;;;;;;5016234;28;20046;-83
2023/11/10 01:28:39;;;;;;;0.75;0.60;;;9.60;99.90;;;;;;5016359;28;20133;-82
2023/11/10 01:31:06;;;;;;;0.73;0.35;;;9.60;99.90;;;;;;5015977;28;20476;-80
2023/11/10 01:33:33;;;;;;;0.70;0.45;;;9.50;99.90;;;;;;5014877;28;20054;-82
2023/11/10 01:36:00;;;;;;;0.65;0.40;;;9.50;99.90;;;;;;5015143;28;20137;-82
2023/11/10 01:38:27;;;;;;;1.33;0.40;;;9.50;99.90;;;;;;5017058;28;20190;-82
2023/11/10 01:40:54;;;;;;;0.50;0.40;;;9.40;99.90;;;;;;5016770;28;20053;-82
2023/11/10 01:43:22;;;;;;;0.90;0.50;;;9.40;99.90;;;;;;5014654;28;20057;-82
2023/11/10 01:45:49;;;;;;;1.35;0.32;;;9.40;99.90;;;;;;5031051;28;20129;-83
2023/11/10 01:48:17;;;;;;;0.30;0.30;;;9.40;99.90;;;;;;5016479;28;20049;-82
2023/11/10 01:50:44;;;;;;;0.88;0.38;;;9.40;99.90;;;;;;5016406;28;20054;-84
2023/11/10 01:53:13;;;;;;;0.52;0.38;;;9.40;99.90;;;;;;5016179;28;20476;-83
2023/11/10 01:55:41;;;;;;;1.58;0.35;;;9.40;99.90;;;;;;5008133;28;20153;-81
2023/11/10 01:58:11;;;;;;;2.22;0.60;;;9.40;99.90;;;;;;5013686;28;20568;-80
2023/11/10 02:00:38;;;;;;;;;;;9.40;99.90;;;;;;5016056;28;20073;-82
2023/11/10 02:03:07;;;;;;;2.83;0.57;;;9.40;99.90;;;;;;5017862;28;19927;-83
2023/11/10 02:05:35;;;;;;;1.50;0.57;;;9.40;99.90;;;;;;5032618;28;20468;-83
2023/11/10 02:08:03;;;;;;;3.00;0.50;;;9.30;99.90;;;;;;5016481;28;20061;-82
2023/11/10 02:10:30;;;;;;;1.60;0.40;;;9.30;99.90;;;;;;5016986;28;20073;-81
2023/11/10 02:12:57;;;;;;;1.70;0.50;;;9.30;99.90;;;;;;5015826;28;20069;-81
2023/11/10 02:15:24;;;;;;;2.08;0.50;;;9.30;99.90;;;;;;5014482;28;20108;-83
2023/11/10 02:17:52;;;;;;;1.20;0.60;;;9.30;99.90;;;;;;5014763;28;20046;-84
2023/11/10 02:20:19;;;;;;;0.43;0.35;;;9.20;99.90;;;;;;5016127;28;20038;-84
2023/11/10 02:22:47;;;;;;;1.55;0.60;;;9.20;99.90;;;;;;5016224;28;20128;-82
2023/11/10 02:25:16;;;;;;;0.77;0.40;;;9.20;99.90;;;;;;5031222;28;20429;-80
2023/11/10 02:27:43;;;;;;;1.13;0.50;;;9.20;99.90;;;;;;5015712;28;20053;-81
2023/11/10 02:30:11;;;;;;;3.40;0.52;;;9.20;99.90;;;;;;5014693;28;20449;-83
2023/11/10 02:32:39;;;;;;;3.58;0.75;;;9.20;99.90;;;;;;5016944;28;20053;-80
2023/11/10 02:35:08;;;;;;;3.70;0.60;;;9.20;99.90;;;;;;5016091;28;20049;-82
2023/11/10 02:37:35;;;;;;;1.50;0.60;;;9.20;99.90;;;;;;5031696;28;20104;-81
2023/11/10 02:40:06;;;;;;;1.77;0.60;;;9.20;99.90;;;;;;5016914;28;20453;-83
2023/11/10 02:42:34;;;;;;;1.95;0.43;;;9.10;99.90;;;;;;5012665;28;20050;-82
2023/11/10 02:45:02;;;;;;;2.85;0.55;;;9.10;99.90;;;;;;5016104;28;20061;-81
2023/11/10 02:47:30;;;;;;;1.23;0.30;;;9.10;99.90;;;;;;5014737;28;20049;-83
2023/11/10 02:49:57;;;;;;;2.47;0.43;;;9.10;99.90;;;;;;5016026;28;20057;-83
2023/11/10 02:52:25;;;;;;;1.00;0.30;;;9.10;99.90;;;;;;5016501;28;20050;-81
2023/11/10 02:54:52;;;;;;;1.35;0.50;;;9.10;99.90;;;;;;5012590;28;20147;-83
2023/11/10 02:57:20;;;;;;;2.72;0.40;;;9.20;99.90;;;;;;5016860;28;20512;-83
2023/11/10 02:59:48;;;;;;;0.98;0.50;;;9.10;99.90;;;;;;5018914;28;20050;-83
2023/11/10 03:02:15;;;;;;;0.35;0.30;;;9.10;99.90;;;;;;5017270;28;20050;-82
2023/11/10 03:04:42;;;;;;;0.30;0.30;;;9.10;99.90;;;;;;5016902;28;20052;-82
2023/11/10 03:07:10;;;;;;;0.90;0.65;;;9.10;99.90;;;;;;5016632;28;20046;-82
2023/11/10 03:09:39;;;;;;;0.47;0.40;;;9.10;99.90;;;;;;5010787;28;20477;-83
2023/11/10 03:12:08;;;;;;;1.85;0.30;;;9.00;99.90;;;;;;5013957;28;20137;-80
2023/11/10 03:14:36;;;;;;;0.20;0.20;;;9.00;99.90;;;;;;5015933;28;20057;-82
2023/11/10 03:17:04;;;;;;;1.00;0.50;;;9.00;99.90;;;;;;5015935;28;20054;-83
2023/11/10 03:19:31;;;;;;;0.38;0.38;;;9.00;99.90;;;;;;5016062;28;20045;-80
2023/11/10 03:21:57;;;;;;;0.57;0.30;;;9.00;99.90;;;;;;5022482;28;20058;-83
2023/11/10 03:24:24;;;;;;;0.20;0.20;;;9.00;99.90;;;;;;5019775;28;20050;-82
2023/11/10 03:26:51;;;;;;;0.50;0.30;;;9.00;99.90;;;;;;5020141;28;20062;-83
2023/11/10 03:29:17;;;;;;;0.20;0.20;;;9.00;99.90;;;;;;5019902;28;20061;-83
2023/11/10 03:31:44;;;;;;;1.35;0.35;;;9.00;99.90;;;;;;5018745;28;20046;-83
2023/11/10 03:34:11;;;;;;;0.20;0.20;;;8.90;99.90;;;;;;5018537;28;20084;-81
2023/11/10 03:36:38;;;;;;;1.35;0.70;;;8.80;99.90;;;;;;5019576;28;20050;-83
2023/11/10 03:39:05;;;;;;;0.30;0.30;;;8.80;99.90;;;;;;5019951;28;20050;-81
2023/11/10 03:41:32;;;;;;;0.25;0.25;;;8.70;99.90;;;;;;5020164;28;20046;-81
2023/11/10 03:43:59;;;;;;;0.35;0.20;;;8.70;99.90;;;;;;5019315;28;20042;-83
2023/11/10 03:46:25;;;;;;;1.65;0.30;;;8.70;99.90;;;;;;5017601;28;20042;-81
2023/11/10 03:48:52;;;;;;;0.32;0.20;;;8.70;99.90;;;;;;5022314;28;20222;-83
2023/11/10 03:51:19;;;;;;;0.47;0.25;;;8.80;99.90;;;;;;5015893;28;20050;-81
2023/11/10 03:53:47;;;;;;;0.40;0.30;;;8.80;99.90;;;;;;5021370;28;20482;-82
2023/11/10 03:56:14;;;;;;;0.30;0.30;;;8.70;99.90;;;;;;5018409;28;20460;-82
2023/11/10 03:58:41;;;;;;;0.30;0.30;;;8.70;99.90;;;;;;5016745;28;20049;-82
2023/11/10 04:01:11;;;;;;;0.30;0.30;;;8.70;99.90;;;;;;5031278;28;20058;-82
2023/11/10 04:03:39;;;;;;;2.78;0.30;;;8.80;99.90;;;;;;5019505;28;20121;-81
2023/11/10 04:06:06;;;;;;;0.40;0.30;;;8.80;99.90;;;;;;5019651;28;20083;-82
2023/11/10 04:08:33;;;;;;;0.35;0.20;;;8.80;99.90;;;;;;5019670;28;20057;-82
2023/11/10 04:11:00;;;;;;;0.20;0.20;;;8.80;99.90;;;;;;5026550;28;20072;-83
2023/11/10 04:13:27;;;;;;;0.30;0.25;;;8.70;99.90;;;;;;5018665;28;20053;-81
2023/11/10 04:15:56;;;;;;;0.20;0.20;;;8.70;99.90;;;;;;5020318;28;20050;-82
2023/11/10 04:18:27;;;;;;;0.30;0.20;;;8.80;99.90;;;;;;5035368;28;20061;-82
2023/11/10 04:20:55;;;;;;;0.20;0.20;;;8.80;99.90;;;;;;5020177;28;20038;-80
2023/11/10 04:23:22;;;;;;;0.20;0.20;;;8.80;99.90;;;;;;5019450;28;20046;-82
2023/11/10 04:25:50;;;;;;;0.73;0.40;;;8.80;99.90;;;;;;5018585;28;20053;-80
2023/11/10 04:28:17;;;;;;;0.17;0.17;;;8.80;99.90;;;;;;5018763;28;20128;-80
2023/11/10 04:30:44;;;;;;;0.20;0.20;;;8.80;99.90;;;;;;5015850;28;20092;-82
2023/11/10 04:33:11;;;;;;;0.20;0.20;;;8.70;99.90;;;;;;5018856;28;20050;-81
2023/11/10 04:35:38;;;;;;;1.05;0.20;;;8.70;99.90;;;;;;5034482;28;20058;-83
2023/11/10 04:38:08;;;;;;;0.30;0.30;;;8.80;99.90;;;;;;5014681;28;20058;-81
2023/11/10 04:40:36;;;;;;;1.55;0.35;;;8.70;99.90;;;;;;5016423;28;20042;-83
2023/11/10 04:43:02;;;;;;;0.30;0.30;;;8.70;99.90;;;;;;5018274;28;20418;-80
2023/11/10 04:45:29;;;;;;;0.20;0.20;;;8.70;99.90;;;;;;5019963;28;20106;-80
2023/11/10 04:47:56;;;;;;;0.52;0.30;;;8.60;99.90;;;;;;5019247;28;20046;-83
2023/11/10 04:50:23;;;;;;;0.65;0.40;;;8.70;99.90;;;;;;5018965;28;20057;-83
2023/11/10 04:52:51;;;;;;;0.50;0.50;;;8.70;99.90;;;;;;5020227;28;20046;-80
2023/11/10 04:55:18;;;;;;;0.40;0.40;;;8.60;99.90;;;;;;5019837;28;20110;-79
2023/11/10 04:57:45;;;;;;;0.30;0.30;;;8.60;99.90;;;;;;5021324;28;20046;-83
2023/11/10 05:00:13;;;;;;;1.80;0.40;;;8.60;99.90;;;;;;5018697;28;20586;-80
2023/11/10 05:02:44;;;;;;;0.50;0.30;;;8.50;99.90;;;;;;5013737;28;20089;-83
2023/11/10 05:05:14;;;;;;;0.35;0.28;;;8.50;99.90;;;;;;5016936;28;20441;-83
2023/11/10 05:07:42;;;;;;;0.30;0.30;;;8.60;99.90;;;;;;5019456;28;20429;-79
2023/11/10 05:10:10;;;;;;;0.35;0.30;;;8.60;99.90;;;;;;5020998;28;20046;-83
2023/11/10 05:12:37;;;;;;;0.50;0.50;;;8.60;99.90;;;;;;5017975;28;20322;-82
2023/11/10 05:15:06;;;;;;;0.80;0.40;;;8.60;99.90;;;;;;5022669;28;20042;-80
2023/11/10 05:17:39;;;;;;;0.50;0.30;;;8.60;99.90;;;;;;5021835;28;20077;-79
2023/11/10 05:20:10;;;;;;;0.40;0.30;;;8.70;99.90;;;;;;5025990;28;20054;-82
2023/11/10 05:22:41;;;;;;;0.95;0.40;;;8.70;99.90;;;;;;5039123;28;20046;-80
2023/11/10 05:25:08;;;;;;;1.25;0.30;;;8.70;99.90;;;;;;5022058;28;20046;-82
2023/11/10 05:27:35;;;;;;;3.08;0.50;;;8.80;99.90;;;;;;5023099;28;20165;-80
2023/11/10 05:30:02;;;;;;;0.30;0.30;;;8.80;99.90;;;;;;5026237;28;20138;-82
2023/11/10 05:32:29;;;;;;;0.25;0.25;;;8.80;99.90;;;;;;5024872;28;20175;-83
2023/11/10 05:34:58;;;;;;;0.93;0.38;;;8.80;99.90;;;;;;5025183;28;20053;-81
2023/11/10 05:37:26;;;;;;;1.45;0.40;;;8.80;99.90;;;;;;5017992;28;20127;-83
2023/11/10 05:39:53;;;;;;;1.08;0.43;;;8.80;99.90;;;;;;5017524;28;20053;-80
2023/11/10 05:42:21;;;;;;;1.20;0.40;;;8.80;99.90;;;;;;5016657;28;20050;-81
2023/11/10 05:44:49;;;;;;;2.28;0.40;;;8.80;99.90;;;;;;5015813;28;20064;-82
2023/11/10 05:47:16;;;;;;;1.92;0.30;;;8.80;99.90;;;;;;5015040;28;20045;-81
2023/11/10 05:49:43;;;;;;;0.63;0.40;;;8.80;99.90;;;;;;5009039;28;20556;-83
2023/11/10 05:52:11;;;;;;;0.63;0.38;;;8.80;99.90;;;;;;5018507;28;20045;-80
2023/11/10 05:54:39;;;;;;;1.75;0.55;;;8.80;99.90;;;;;;5011965;28;20112;-80
2023/11/10 05:57:06;;;;;;;0.90;0.30;;;8.80;99.90;;;;;;5016965;28;20053;-83
2023/11/10 05:59:33;;;;;;;1.48;0.60;;;8.80;99.90;;;;;;5017060;28;20042;-83
2023/11/10 06:02:01;;;;;;;0.95;0.60;;;8.80;99.90;;;;;;5014307;28;20053;-81
2023/11/10 06:04:28;;;;;;;0.63;0.40;;;8.90;99.90;;;;;;5013450;28;20417;-83
2023/11/10 06:07:02;;;;;;;0.63;0.50;;;8.90;99.90;;;;;;5015433;28;20569;-84
2023/11/10 06:09:31;;;;;;;2.45;0.47;;;8.80;99.90;;;;;;5014770;28;20540;-81
2023/11/10 06:11:58;;;;;;;1.33;0.80;;;8.80;99.90;;;;;;5015048;28;20045;-81
2023/11/10 06:14:25;;;;;;;0.30;0.30;;;8.90;99.90;;;;;;5013311;28;20150;-82
2023/11/10 06:16:51;;;;;;;2.28;0.50;;;8.90;99.90;;;;;;5015199;28;20042;-84
2023/11/10 06:19:19;;;;;;;0.98;0.32;;;8.90;99.90;;;;;;5029797;28;20046;-80
2023/11/10 06:21:45;;;;;;;1.20;0.40;;;8.90;99.90;;;;;;5015590;28;20050;-82
2023/11/10 06:24:12;;;;;;;1.30;0.52;;;8.90;99.90;;;;;;5014191;28;20065;-83
2023/11/10 06:26:39;;;;;;;2.25;0.40;;;8.90;99.90;;;;;;5012151;28;20143;-83
2023/11/10 06:29:06;;;;;;;0.38;0.38;;;8.90;99.90;;;;;;5014936;28;20050;-83
2023/11/10 06:31:33;;;;;;;6.25;1.42;;;8.90;99.90;;;;;;5015573;28;20056;-82
2023/11/10 06:34:00;;;;;;;0.60;0.45;;;8.90;99.90;;;;;;5014975;28;20056;-81
2023/11/10 06:36:27;;;;;;;1.48;0.43;;;8.90;99.90;;;;;;5015035;28;20100;-82
2023/11/10 06:38:54;;;;;;;1.42;0.65;;;8.90;99.90;;;;;;5016019;28;20421;-82
2023/11/10 06:41:20;;;;;;;0.75;0.73;;;8.90;99.90;;;;;;5020265;28;20585;-82
2023/11/10 06:43:47;;;;;;;0.80;0.60;;;9.00;99.90;;;;;;5015465;28;20042;-82
2023/11/10 06:46:26;;;;;;;1.58;0.73;;;9.00;99.90;;;;;;5025503;28;20131;-80
2023/11/10 06:48:55;;;;;;;1.38;0.50;;;8.90;99.90;;;;;;5016301;28;20050;-82
2023/11/10 06:51:23;;;;;;;2.60;0.70;;;9.00;99.90;;;;;;5015475;28;20054;-82
2023/11/10 06:53:50;;;;;;;0.55;0.30;;;9.00;99.90;;;;;;5012864;28;20096;-81
2023/11/10 06:56:17;;;;;;;0.40;0.40;;;9.00;99.90;;;;;;5014929;28;20524;-83
2023/11/10 06:58:45;;;;;;;3.75;0.55;;;9.00;99.90;;;;;;5017202;28;20119;-82
2023/11/10 07:01:12;;;;;;;1.05;0.40;;;9.00;99.90;;;;;;5016240;28;20551;-83
2023/11/10 07:03:40;;;;;;;2.13;0.52;;;8.90;99.90;;;;;;5016366;28;20564;-81
2023/11/10 07:06:08;;;;;;;2.15;0.40;;;8.90;99.90;;;;;;5015436;28;20042;-79
2023/11/10 07:08:35;;;;;;;2.40;0.70;;;8.90;99.90;;;;;;5031443;28;20100;-81
2023/11/10 07:11:02;;;;;;;0.63;0.57;;;8.80;99.90;;;;;;5015098;28;20125;-80
2023/11/10 07:13:29;;;;;;;1.60;0.60;;;8.80;99.90;;;;;;5016187;28;20053;-82
2023/11/10 07:15:57;;;;;;;1.35;0.55;;;8.80;99.90;;;;;;5015175;28;20124;-81
2023/11/10 07:18:26;;;;;;;0.75;0.50;;;8.80;99.90;;;;;;5014610;28;20418;-82
2023/11/10 07:20:54;;;;;;;1.27;0.50;;;8.80;99.90;;;;;;5015537;28;20124;-84
2023/11/10 07:23:21;;;;;;;1.60;0.57;;;8.80;99.90;;;;;;5017044;28;20169;-81
2023/11/10 07:25:48;;;;;;;2.00;0.50;;;8.80;99.90;;;;;;5015082;28;20042;-82
2023/11/10 07:28:14;;;;;;;1.48;0.60;;;8.90;99.90;;;;;;5016133;28;20046;-82
2023/11/10 07:30:43;;;;;;;0.50;0.40;;;8.90;99.90;;;;;;5016190;28;20104;-82
2023/11/10 07:33:10;;;;;;;1.38;0.60;;;8.90;99.90;;;;;;5016374;28;20199;-83
2023/11/10 07:35:37;;;;;;;1.63;0.52;;;8.90;99.90;;;;;;5031152;28;20050;-83
2023/11/10 07:38:05;;;;;;;2.33;0.55;;;9.00;99.90;;;;;;5014720;28;20046;-83
2023/11/10 07:40:32;;;;;;;1.58;0.50;;;8.90;99.90;;;;;;5013538;28;20049;-81
2023/11/10 07:42:59;;;;;;;1.10;0.68;;;9.00;99.90;;;;;;5016688;28;20046;-83
2023/11/10 07:45:28;;;;;;;3.25;0.70;;;9.00;99.90;;;;;;5027854;28;20053;-81
2023/11/10 07:47:55;;;;;;;1.17;0.50;;;9.00;99.90;;;;;;5031029;28;20046;-83
2023/11/10 07:50:23;;;;;;;3.00;0.70;;;9.00;99.90;;;;;;5017324;28;20120;-83
2023/11/10 07:52:50;;;;;;;1.00;0.40;;;9.00;99.90;;;;;;5017292;28;20414;-83
2023/11/10 07:55:16;;;;;;;2.63;0.52;;;9.00;99.90;;;;;;5017194;28;20046;-82
2023/11/10 07:57:43;;;;;;;1.02;0.40;;;9.00;99.90;;;;;;5010161;28;20399;-82
2023/11/10 08:00:18;;;;;;;0.50;0.50;;;9.10;99.90;;;;;;5016737;28;20042;-81
2023/11/10 08:02:51;;;;;;;0.63;0.60;;;9.10;99.90;;;;;;5010267;28;20042;-81
2023/11/10 08:05:22;;;;;;;4.07;0.80;;;9.10;99.90;;;;;;5015093;28;20046;-81
2023/11/10 08:07:52;;;;;;;1.63;0.73;;;9.10;99.90;;;;;;5012882;28;20419;-82
2023/11/10 08:10:20;;;;;;;;;;;9.10;99.90;;;;;;5022810;28;20061;-83
2023/11/10 08:12:47;;;;;;;2.88;0.70;;;9.20;99.90;;;;;;5010026;28;19921;-81
2023/11/10 08:15:14;;;;;;;4.72;0.80;;;9.10;99.90;;;;;;5033518;28;20050;-82
2023/11/10 08:17:41;;;;;;;2.55;0.80;;;9.10;99.90;;;;;;5017784;28;20449;-81
2023/11/10 08:20:09;;;;;;;2.67;0.70;;;9.20;99.90;;;;;;5020017;28;20042;-80
2023/11/10 08:22:36;;;;;;;1.00;0.60;;;9.20;99.90;;;;;;5019231;28;20112;-83
2023/11/10 08:25:05;;;;;;;4.85;1.10;;;9.20;99.90;;;;;;5020647;28;20046;-82
2023/11/10 08:27:32;;;;;;;1.40;0.75;;;9.30;99.90;;;;;;5011217;28;20062;-82
2023/11/10 08:30:00;;;;;;;2.53;0.60;;;9.30;99.90;;;;;;5019084;28;20049;-82
2023/11/10 08:32:27;;;;;;;1.50;0.68;;;9.40;99.90;;;;;;5017836;28;20046;-83
2023/11/10 08:34:55;;;;;;;1.90;0.60;;;9.40;99.90;;;;;;5019416;28;20142;-81
2023/11/10 08:37:22;;;;;;;4.03;0.50;;;9.40;99.90;;;;;;5020377;28;20108;-82
2023/11/10 08:39:49;;;;;;;0.65;0.50;;;9.50;99.90;;;;;;5035432;28;20042;-81
2023/11/10 08:42:16;;;;;;;2.25;0.80;;;9.50;99.90;;;;;;5020786;28;20053;-81
2023/11/10 08:44:46;;;;;;;1.25;0.77;;;9.50;99.90;;;;;;5020442;28;20053;-81
2023/11/10 08:47:13;;;;;;;1.83;0.80;;;9.50;99.90;;;;;;5015114;28;20050;-82
2023/11/10 08:49:44;;;;;;;4.50;1.05;;;9.50;99.90;;;;;;5020253;28;20398;-83
2023/11/10 08:52:14;;;;;;;5.32;0.98;;;9.40;99.90;;;;;;5032520;28;20061;-81
2023/11/10 08:54:41;;;;;;;4.40;1.08;;;9.40;99.90;;;;;;5019279;28;20476;-83
2023/11/10 08:57:08;;;;;;;3.70;0.93;;;9.40;99.90;;;;;;5019860;28;20081;-82
2023/11/10 08:59:35;;;;;;;3.53;0.70;;;9.40;99.90;;;;;;5019712;28;20050;-82
2023/11/10 09:02:02;;;;;;;2.75;0.98;;;9.50;99.90;;;;;;5017069;28;20046;-83
2023/11/10 09:04:29;;;;;;;1.75;0.75;;;9.50;99.90;;;;;;5019657;28;20053;-80
2023/11/10 09:06:56;;;;;;;2.10;0.38;;;9.50;99.90;;;;;;5020785;28;20437;-83
2023/11/10 09:09:23;;;;;;;1.40;0.55;;;9.40;99.90;;;;;;5020480;28;20498;-81
2023/11/10 09:11:50;;;;;;;1.95;1.10;;;9.40;99.90;;;;;;5011698;28;20060;-83
2023/11/10 09:14:17;;;;;;;2.63;0.75;;;9.40;99.90;;;;;;5027696;28;20046;-81
2023/11/10 09:16:44;;;;;;;2.45;0.90;;;9.40;99.90;;;;;;5018722;28;20049;-83
2023/11/10 09:19:11;;;;;;;2.10;0.70;;;9.40;99.90;;;;;;5018915;28;20045;-81
2023/11/10 09:21:39;;;;;;;1.55;0.70;;;9.40;99.90;;;;;;5018858;28;20050;-82
2023/11/10 09:24:07;;;;;;;2.25;0.75;;;9.40;99.90;;;;;;5013143;28;20172;-81
2023/11/10 09:26:36;;;;;;;0.70;0.52;;;9.50;99.90;;;;;;5017134;28;20058;-82
2023/11/10 09:29:03;;;;;;;2.63;0.77;;;9.50;99.90;;;;;;5016375;28;20513;-81
2023/11/10 09:31:30;;;;;;;3.22;1.00;;;9.50;99.90;;;;;;5016588;28;20046;-80
2023/11/10 09:33:57;;;;;;;2.67;0.93;;;9.60;99.90;;;;;;5013635;28;20042;-82
2023/11/10 09:36:25;;;;;;;2.92;0.88;;;9.60;99.90;;;;;;5019308;28;20054;-81
2023/11/10 09:38:52;;;;;;;3.70;0.95;;;9.60;99.90;;;;;;5019304;28;20054;-83
2023/11/10 09:41:23;;;;;;;4.07;1.00;;;9.60;99.90;;;;;;5019469;28;20046;-83
2023/11/10 09:43:51;;;;;;;4.55;1.02;;;9.50;99.90;;;;;;5019379;28;20100;-81
2023/11/10 09:46:19;;;;;;;4.60;0.73;;;9.50;99.90;;;;;;5019090;28;20104;-82
2023/11/10 09:48:47;;;;;;;2.13;0.95;;;9.50;99.90;;;;;;5018715;28;20073;-81
2023/11/10 09:51:14;;;;;;;1.50;0.80;;;9.50;99.90;;;;;;5017987;28;20516;-82
2023/11/10 09:53:41;;;;;;;2.80;0.70;;;9.50;99.90;;;;;;5018925;28;20049;-81
2023/11/10 09:56:10;;;;;;;2.67;0.98;;;9.50;99.90;;;;;;5019633;28;20046;-82
2023/11/10 09:58:38;;;;;;;1.65;0.82;;;9.60;99.90;;;;;;5019477;28;20049;-82
2023/11/10 10:01:06;;;;;;;1.83;0.77;;;9.60;99.90;;;;;;5019311;28;20517;-81
2023/11/10 10:03:35;;;;;;;4.03;0.93;;;9.60;99.90;;;;;;5018968;28;20046;-81
2023/11/10 10:06:02;;;;;;;6.85;1.05;;;9.50;99.90;;;;;;5019048;28;20073;-83
2023/11/10 10:08:29;;;;;;;4.43;0.88;;;9.50;99.90;;;;;;5013566;28;20054;-82
2023/11/10 10:10:56;;;;;;;1.40;0.80;;;9.50;99.90;;;;;;5017611;28;20050;-82
2023/11/10 10:13:27;;;;;;;1.10;0.70;;;9.50;99.90;;;;;;5017295;28;20081;-82
2023/11/10 10:16:04;;;;;;;;;;;9.50;99.90;;;;;;5013299;28;20521;-82
2023/11/10 10:18:32;;;;;;;1.23;0.63;;;9.50;99.90;;;;;;5016849;28;19936;-82
2023/11/10 10:21:00;;;;;;;2.28;0.70;;;9.50;99.90;;;;;;5015584;28;20101;-82
2023/11/10 10:23:27;;;;;;;1.70;0.82;;;9.60;99.90;;;;;;5015901;28;20049;-81
2023/11/10 10:25:57;;;;;;;2.38;0.82;;;9.60;99.90;;;;;;5017208;28;20038;-82
2023/11/10 10:28:24;;;;;;;3.35;0.77;;;9.60;99.90;;;;;;5016206;28;20049;-81
2023/11/10 10:30:51;;;;;;;2.42;0.65;;;9.60;99.90;;;;;;5016114;28;20080;-81
2023/11/10 10:33:18;;;;;;;1.75;0.80;;;9.60;99.90;;;;;;5015341;28;20041;-81
2023/11/10 10:35:45;;;;;;;4.38;0.90;;;9.60;99.90;;;;;;5012402;28;20049;-82
2023/11/10 10:38:17;;;;;;;1.42;0.70;;;9.70;99.90;;;;;;5018163;28;20064;-81
2023/11/10 10:40:43;;;;;;;2.00;1.02;;;9.70;99.90;;;;;;5017584;28;20073;-82
2023/11/10 10:43:11;;;;;;;3.80;0.95;;;9.80;99.90;;;;;;5017674;28;20088;-81
2023/11/10 10:45:41;;;;;;;3.03;0.50;;;9.90;99.90;;;;;;5018050;28;20049;-82
2023/11/10 10:48:11;;;;;;;4.20;0.90;;;9.90;99.90;;;;;;5017839;28;20053;-81
2023/11/10 10:50:40;;;;;;;2.23;0.67;;;10.00;99.90;;;;;;5013461;28;20144;-81
2023/11/10 10:53:08;;;;;;;4.25;0.65;;;10.00;99.90;;;;;;5017946;28;20557;-81
2023/11/10 10:55:39;;;;;;;1.67;0.50;;;10.00;99.90;;;;;;5018007;28;20068;-80
2023/11/10 10:58:08;;;;;;;0.93;0.57;;;10.00;99.90;;;;;;5017635;28;20410;-82
2023/11/10 11:00:37;;;;;;;4.47;1.23;;;10.00;99.90;;;;;;5017854;28;20050;-81
2023/11/10 11:03:41;;;;;;;4.25;1.30;;;10.00;99.90;;;;;;5018010;28;20050;-82
2023/11/10 11:06:43;;;;;;;3.78;0.90;;;10.00;99.90;;;;;;5008534;28;20394;-80
2023/11/10 11:09:47;;;;;;;2.25;0.85;;;10.00;99.90;;;;;;5012531;28;20497;-80
2023/11/10 11:12:45;;;;;;;4.03;1.55;;;10.00;99.90;;;;;;5010127;28;20049;-81
2023/11/10 11:15:31;;;;;;;3.30;1.30;;;10.00;99.90;;;;;;5011449;28;20141;-80
2023/11/10 11:18:18;;;;;;;4.03;1.20;;;10.00;99.90;;;;;;5013122;28;20076;-81
2023/11/10 11:20:47;;;;;;;2.42;0.80;;;10.00;99.90;;;;;;5012234;28;20057;-81
2023/11/10 11:23:14;;;;;;;6.43;1.20;;;10.00;99.90;;;;;;5015405;28;20092;-80
2023/11/10 11:25:42;;;;;;;2.00;0.80;;;10.00;99.90;;;;;;5015473;28;20052;-80
2023/11/10 11:28:09;;;;;;;2.38;1.23;;;9.90;99.90;;;;;;5015307;28;20046;-80
2023/11/10 11:30:37;;;;;;;3.95;1.45;;;9.90;99.90;;;;;;5015561;28;20100;-82
2023/11/10 11:33:09;;;;;;;5.55;0.93;;;9.90;99.90;;;;;;5013573;28;20041;-80
2023/11/10 11:35:47;;;;;;;2.38;0.88;;;9.90;99.90;;;;;;5016755;28;20050;-79
2023/11/10 11:38:30;;;;;;;2.13;0.77;;;9.90;99.90;;;;;;5018793;28;20073;-81
2023/11/10 11:41:05;;;;;;;2.20;0.80;;;9.90;99.90;;;;;;5029538;28;20046;-81
2023/11/10 11:43:32;;;;;;;;;;;10.10;99.90;;;;;;5021467;28;20049;-82
2023/11/10 11:46:03;;;;;;;4.78;1.25;;;10.10;99.90;;;;;;5021322;28;19944;-82
2023/11/10 11:48:35;;;;;;;6.97;1.30;;;10.30;99.90;;;;;;5019892;28;20516;-82
2023/11/10 11:51:04;;;;;;;2.63;0.80;;;10.30;99.90;;;;;;5022963;28;20065;-82
2023/11/10 11:53:30;;;;;;;2.67;1.10;;;10.40;99.90;;;;;;5015992;28;20473;-81
2023/11/10 11:55:57;;;;;;;2.42;1.15;;;10.50;99.90;;;;;;5019281;28;20084;-81
2023/11/10 11:58:28;;;;;;;2.60;1.08;;;10.50;99.90;;;;;;5018786;28;20110;-82
2023/11/10 12:00:57;;;;;;;5.28;0.93;;;10.50;99.90;;;;;;5018836;28;20100;-82
2023/11/10 12:03:27;;;;;;;5.07;0.80;;;10.50;99.90;;;;;;5017902;28;20131;-81
2023/11/10 12:05:56;;;;;;;5.25;1.23;;;10.40;99.90;;;;;;5032675;28;20077;-81
2023/11/10 12:08:22;;;;;;;2.80;0.80;;;10.40;99.90;;;;;;5019726;28;20054;-83
2023/11/10 12:10:49;;;;;;;3.33;1.00;;;10.40;99.90;;;;;;5017481;28;20064;-81
2023/11/10 12:13:19;;;;;;;4.45;1.25;;;10.40;99.90;;;;;;5034483;28;20042;-82
2023/11/10 12:15:46;;;;;;;2.93;0.80;;;10.40;99.90;;;;;;5017436;28;20049;-81
2023/11/10 12:18:17;;;;;;;2.67;1.00;;;10.50;99.90;;;;;;5019908;28;20346;-81
2023/11/10 12:20:44;;;;;;;7.72;1.67;;;10.50;99.90;;;;;;5018529;28;20085;-81
2023/11/10 12:23:14;;;;;;;2.40;1.00;;;10.60;99.90;;;;;;5018399;28;20116;-82
2023/11/10 12:25:41;;;;;;;5.10;1.10;;;10.70;99.90;;;;;;5019117;28;20049;-81
2023/11/10 12:28:12;;;;;;;2.72;0.93;;;10.70;99.90;;;;;;5017026;28;20081;-82
2023/11/10 12:30:40;;;;;;;4.38;1.33;;;10.80;99.90;;;;;;5025269;28;20058;-82
2023/11/10 12:33:09;;;;;;;3.38;1.20;;;10.90;99.90;;;;;;5019478;28;20042;-83
2023/11/10 12:35:39;;;;;;;2.17;1.00;;;11.00;99.90;;;;;;5018574;28;20057;-82
2023/11/10 12:38:07;;;;;;;4.43;1.20;;;11.00;99.90;;;;;;5035731;28;20069;-82
2023/11/10 12:40:37;;;;;;;3.17;1.10;;;11.00;99.90;;;;;;5020479;28;20112;-82
2023/11/10 12:43:07;;;;;;;3.05;1.02;;;11.10;99.90;;;;;;5019068;28;20501;-82
2023/11/10 12:45:34;;;;;;;6.28;1.33;;;11.10;99.90;;;;;;5018015;28;20049;-82
2023/11/10 12:48:11;;;;;;;6.68;1.50;;;11.10;99.90;;;;;;5013859;28;20049;-82
2023/11/10 12:50:38;;;;;;;4.38;1.20;;;11.20;99.90;;;;;;5013173;28;20142;-81
2023/11/10 12:53:08;;;;;;;4.53;1.42;;;11.10;99.90;;;;;;5018845;28;20054;-81
2023/11/10 12:55:35;;;;;;;2.85;0.90;;;11.20;99.90;;;;;;5020073;28;20079;-81
2023/11/10 12:58:04;;;;;;;7.57;1.27;;;11.20;99.90;;;;;;5019760;28;20494;-81
2023/11/10 13:00:35;;;;;;;5.60;1.30;;;11.20;99.90;;;;;;5020440;28;20553;-81